Florijngracht — PBSU — position and weather

sailwx.info

Track history (hours):
 
Tides and Currents Weather Stations Pressure Air Temp Water Temp Dewpoint Dewpoint Depression Visibility Wind Speed Wind Dir Waves Ship Positions

Florijngracht

Last reported at 2018-Jan-11 20:52 UTC. Time now 2018-Jan-19 01:11 UTC.
Position N 39°50' E 024°14'.

Length 137 m; draft 6.1 m.

Type: Cargo ship. MMSI: 246592000.

Date/timePositionNaut miles runAvg speedWind from/ knotsBaromVisibWave heightAir tempDewpointWater temp
2018-Jan-11 20:52N 39°50' E 024°14'614.5
2018-Jan-11 20:27N 39°51' E 024°06'23 1.6
2018-Jan-11 05:53N 39°49' E 023°37'1614.9
2018-Jan-11 04:50N 39°42' E 023°55'515.2
2018-Jan-11 04:30N 39°40' E 024°01'715.0
2018-Jan-11 04:00N 39°37' E 024°09'  
2018-Jan-08 08:49N 37°39' E 026°35'1815.1
2018-Jan-08 07:39N 37°21' E 026°39'215.3
2018-Jan-08 07:30N 37°19' E 026°39'19613.7
2018-Jan-07 17:11N 35°59' E 030°23'415.9
2018-Jan-07 16:57N 35°59' E 030°27'  
2018-Jan-02 11:35N 34°37' E 033°03'112.8
2018-Jan-02 11:30N 34°39' E 033°03'2 4.0
2018-Jan-02 11:00N 34°39' E 033°01'0 0.0
2018-Jan-02 10:30N 34°39' E 033°01'0 0.0
2018-Jan-02 07:07N 34°39' E 033°01'0 0.0
2018-Jan-02 07:00N 34°39' E 033°01'0 0.0
2018-Jan-02 06:30N 34°39' E 033°01'0 0.4
2018-Jan-02 06:00N 34°39' E 033°01'2 3.8
2018-Jan-02 05:24N 34°39' E 033°04'  
Track history (hours):
 
Tides and Currents Weather Stations Pressure Air Temp Water Temp Dewpoint Dewpoint Depression Visibility Wind Speed Wind Dir Waves Ship Positions

Florijngracht

Last reported at 2018-Jan-11 20:52 UTC. Time now 2018-Jan-19 01:11 UTC.
Position N 39°50' E 024°14'.

Length 137 m; draft 6.1 m.

Type: Cargo ship. MMSI: 246592000.

Date/timePositionNaut miles runAvg speedWind from/ knotsBaromVisibWave heightAir tempDewpointWater temp
2018-Jan-11 20:52N 39°50' E 024°14'614.5
2018-Jan-11 20:27N 39°51' E 024°06'23 1.6
2018-Jan-11 05:53N 39°49' E 023°37'1614.9
2018-Jan-11 04:50N 39°42' E 023°55'515.2
2018-Jan-11 04:30N 39°40' E 024°01'715.0
2018-Jan-11 04:00N 39°37' E 024°09'  
2018-Jan-08 08:49N 37°39' E 026°35'1815.1
2018-Jan-08 07:39N 37°21' E 026°39'215.3
2018-Jan-08 07:30N 37°19' E 026°39'19613.7
2018-Jan-07 17:11N 35°59' E 030°23'415.9
2018-Jan-07 16:57N 35°59' E 030°27'  
2018-Jan-02 11:35N 34°37' E 033°03'112.8
2018-Jan-02 11:30N 34°39' E 033°03'2 4.0
2018-Jan-02 11:00N 34°39' E 033°01'0 0.0
2018-Jan-02 10:30N 34°39' E 033°01'0 0.0
2018-Jan-02 07:07N 34°39' E 033°01'0 0.0
2018-Jan-02 07:00N 34°39' E 033°01'0 0.0
2018-Jan-02 06:30N 34°39' E 033°01'0 0.4
2018-Jan-02 06:00N 34°39' E 033°01'2 3.8
2018-Jan-02 05:24N 34°39' E 033°04'  

Dump ship's entire track history